sensor_id;sensor_type;location;lat;lon;timestamp;pressure;altitude;pressure_sealevel;temperature;humidity
35989;BME280;22064;42.672;23.282;2022-10-10T00:00:38;95382.53;;;11.41;100.00
35989;BME280;22064;42.672;23.282;2022-10-10T00:03:05;95381.28;;;11.44;100.00
35989;BME280;22064;42.672;23.282;2022-10-10T00:05:31;95393.41;;;11.50;100.00
35989;BME280;22064;42.672;23.282;2022-10-10T00:07:57;95391.03;;;11.48;100.00
35989;BME280;22064;42.672;23.282;2022-10-10T00:10:24;95390.47;;;11.35;100.00
35989;BME280;22064;42.672;23.282;2022-10-10T00:12:49;95392.75;;;11.19;100.00
35989;BME280;22064;42.672;23.282;2022-10-10T00:15:15;95402.94;;;11.32;100.00
35989;BME280;22064;42.672;23.282;2022-10-10T00:17:41;95395.81;;;11.28;100.00
35989;BME280;22064;42.672;23.282;2022-10-10T00:20:10;95400.66;;;11.36;100.00
35989;BME280;22064;42.672;23.282;2022-10-10T00:22:35;95397.38;;;11.05;100.00
35989;BME280;22064;42.672;23.282;2022-10-10T00:25:01;95389.00;;;10.92;100.00
35989;BME280;22064;42.672;23.282;2022-10-10T00:27:27;95396.22;;;10.78;100.00
35989;BME280;22064;42.672;23.282;2022-10-10T00:29:55;95389.88;;;10.74;100.00
35989;BME280;22064;42.672;23.282;2022-10-10T00:32:21;95391.31;;;10.58;100.00
35989;BME280;22064;42.672;23.282;2022-10-10T00:34:46;95393.88;;;10.46;100.00
35989;BME280;22064;42.672;23.282;2022-10-10T00:37:12;95390.66;;;10.32;100.00
35989;BME280;22064;42.672;23.282;2022-10-10T00:39:37;95385.72;;;10.24;100.00
35989;BME280;22064;42.672;23.282;2022-10-10T00:42:04;95393.72;;;10.29;100.00
35989;BME280;22064;42.672;23.282;2022-10-10T00:44:29;95383.50;;;10.28;100.00
35989;BME280;22064;42.672;23.282;2022-10-10T00:46:55;95388.41;;;10.36;100.00
35989;BME280;22064;42.672;23.282;2022-10-10T00:49:24;95382.56;;;10.40;100.00
35989;BME280;22064;42.672;23.282;2022-10-10T00:51:54;95386.28;;;10.45;100.00
35989;BME280;22064;42.672;23.282;2022-10-10T00:54:22;95393.66;;;10.48;100.00
35989;BME280;22064;42.672;23.282;2022-10-10T00:56:54;95386.41;;;10.38;100.00
35989;BME280;22064;42.672;23.282;2022-10-10T00:59:21;95384.78;;;10.37;100.00
35989;BME280;22064;42.672;23.282;2022-10-10T01:01:47;95384.44;;;10.33;100.00
35989;BME280;22064;42.672;23.282;2022-10-10T01:04:39;95382.31;;;10.42;100.00
35989;BME280;22064;42.672;23.282;2022-10-10T01:07:08;95384.78;;;10.37;100.00
35989;BME280;22064;42.672;23.282;2022-10-10T01:09:37;95384.28;;;10.47;100.00
35989;BME280;22064;42.672;23.282;2022-10-10T01:15:26;95394.31;;;10.43;100.00
35989;BME280;22064;42.672;23.282;2022-10-10T01:18:13;95388.66;;;10.46;100.00
35989;BME280;22064;42.672;23.282;2022-10-10T01:21:04;95392.88;;;10.59;100.00
35989;BME280;22064;42.672;23.282;2022-10-10T01:29:24;95393.78;;;10.53;100.00
35989;BME280;22064;42.672;23.282;2022-10-10T01:31:50;95387.44;;;10.49;100.00
35989;BME280;22064;42.672;23.282;2022-10-10T01:37:08;95400.38;;;10.67;100.00
35989;BME280;22064;42.672;23.282;2022-10-10T01:39:54;95400.94;;;10.57;100.00
35989;BME280;22064;42.672;23.282;2022-10-10T01:45:06;95384.78;;;10.37;100.00
35989;BME280;22064;42.672;23.282;2022-10-10T01:47:32;95385.41;;;10.51;100.00
35989;BME280;22064;42.672;23.282;2022-10-10T01:50:01;95387.91;;;10.57;100.00
35989;BME280;22064;42.672;23.282;2022-10-10T01:52:50;95386.50;;;10.43;100.00
35989;BME280;22064;42.672;23.282;2022-10-10T01:55:38;95392.13;;;10.28;100.00
35989;BME280;22064;42.672;23.282;2022-10-10T02:00:50;95379.59;;;9.88;100.00
35989;BME280;22064;42.672;23.282;2022-10-10T02:03:28;95388.53;;;9.92;100.00
35989;BME280;22064;42.672;23.282;2022-10-10T02:05:59;95388.53;;;9.92;100.00
35989;BME280;22064;42.672;23.282;2022-10-10T02:08:32;95392.00;;;10.05;100.00
35989;BME280;22064;42.672;23.282;2022-10-10T02:11:01;95389.97;;;10.07;100.00
35989;BME280;22064;42.672;23.282;2022-10-10T02:13:38;95393.44;;;10.19;100.00
35989;BME280;22064;42.672;23.282;2022-10-10T02:16:08;95395.88;;;10.14;100.00
35989;BME280;22064;42.672;23.282;2022-10-10T02:18:37;95394.44;;;10.00;100.00
35989;BME280;22064;42.672;23.282;2022-10-10T02:21:05;95395.91;;;9.95;100.00
35989;BME280;22064;42.672;23.282;2022-10-10T02:23:33;95410.22;;;10.05;100.00
35989;BME280;22064;42.672;23.282;2022-10-10T02:25:59;95400.09;;;9.97;100.00
35989;BME280;22064;42.672;23.282;2022-10-10T02:28:35;95396.63;;;9.84;100.00
35989;BME280;22064;42.672;23.282;2022-10-10T02:31:06;95397.81;;;9.70;100.00
35989;BME280;22064;42.672;23.282;2022-10-10T02:33:57;95408.50;;;9.62;100.00
35989;BME280;22064;42.672;23.282;2022-10-10T02:36:26;95402.56;;;9.55;100.00
35989;BME280;22064;42.672;23.282;2022-10-10T02:38:54;95404.91;;;9.44;100.00
35989;BME280;22064;42.672;23.282;2022-10-10T02:41:21;95402.09;;;9.21;100.00
35989;BME280;22064;42.672;23.282;2022-10-10T02:43:48;95406.94;;;9.17;100.00
35989;BME280;22064;42.672;23.282;2022-10-10T02:46:15;95404.78;;;9.14;100.00
35989;BME280;22064;42.672;23.282;2022-10-10T02:48:41;95401.75;;;9.17;100.00
35989;BME280;22064;42.672;23.282;2022-10-10T02:51:07;95402.91;;;9.21;100.00
35989;BME280;22064;42.672;23.282;2022-10-10T02:53:34;95406.56;;;9.14;100.00
35989;BME280;22064;42.672;23.282;2022-10-10T02:56:01;95408.75;;;9.17;100.00
35989;BME280;22064;42.672;23.282;2022-10-10T02:58:26;95398.78;;;9.14;100.00
35989;BME280;22064;42.672;23.282;2022-10-10T03:00:52;95407.72;;;9.18;100.00
35989;BME280;22064;42.672;23.282;2022-10-10T03:03:17;95406.94;;;9.17;100.00
35989;BME280;22064;42.672;23.282;2022-10-10T03:05:44;95403.56;;;9.17;100.00
35989;BME280;22064;42.672;23.282;2022-10-10T03:08:09;95412.84;;;9.24;100.00
35989;BME280;22064;42.672;23.282;2022-10-10T03:10:35;95411.44;;;9.29;100.00
35989;BME280;22064;42.672;23.282;2022-10-10T03:13:00;95403.41;;;9.30;100.00
35989;BME280;22064;42.672;23.282;2022-10-10T03:15:26;95403.44;;;9.48;100.00
35989;BME280;22064;42.672;23.282;2022-10-10T03:17:52;95401.78;;;9.54;100.00
35989;BME280;22064;42.672;23.282;2022-10-10T03:20:17;95408.34;;;9.38;100.00
35989;BME280;22064;42.672;23.282;2022-10-10T03:22:43;95399.09;;;9.42;100.00
35989;BME280;22064;42.672;23.282;2022-10-10T03:25:08;95419.19;;;9.54;100.00
35989;BME280;22064;42.672;23.282;2022-10-10T03:27:34;95418.25;;;9.48;100.00
35989;BME280;22064;42.672;23.282;2022-10-10T03:29:59;95422.28;;;9.62;100.00
35989;BME280;22064;42.672;23.282;2022-10-10T03:32:25;95411.75;;;9.57;100.00
35989;BME280;22064;42.672;23.282;2022-10-10T03:34:50;95414.84;;;9.47;100.00
35989;BME280;22064;42.672;23.282;2022-10-10T03:37:16;95417.94;;;9.56;100.00
35989;BME280;22064;42.672;23.282;2022-10-10T03:39:41;95417.66;;;9.64;100.00
35989;BME280;22064;42.672;23.282;2022-10-10T03:42:07;95401.63;;;9.67;100.00
35989;BME280;22064;42.672;23.282;2022-10-10T03:44:32;95417.75;;;9.58;100.00
35989;BME280;22064;42.672;23.282;2022-10-10T03:46:58;95420.06;;;9.47;100.00
35989;BME280;22064;42.672;23.282;2022-10-10T03:49:23;95405.22;;;9.30;100.00
35989;BME280;22064;42.672;23.282;2022-10-10T03:51:49;95422.53;;;9.17;100.00
35989;BME280;22064;42.672;23.282;2022-10-10T03:54:14;95418.19;;;9.11;100.00
35989;BME280;22064;42.672;23.282;2022-10-10T03:56:40;95414.06;;;9.04;100.00
35989;BME280;22064;42.672;23.282;2022-10-10T03:59:05;95416.13;;;8.95;100.00
35989;BME280;22064;42.672;23.282;2022-10-10T04:01:32;95419.88;;;8.99;100.00
35989;BME280;22064;42.672;23.282;2022-10-10T04:03:58;95427.50;;;8.94;100.00
35989;BME280;22064;42.672;23.282;2022-10-10T04:06:23;95414.47;;;8.75;100.00
35989;BME280;22064;42.672;23.282;2022-10-10T04:08:49;95428.44;;;8.74;100.00
35989;BME280;22064;42.672;23.282;2022-10-10T04:11:14;95418.91;;;8.68;100.00
35989;BME280;22064;42.672;23.282;2022-10-10T04:13:40;95425.53;;;8.64;100.00
35989;BME280;22064;42.672;23.282;2022-10-10T04:16:05;95418.00;;;8.56;100.00
35989;BME280;22064;42.672;23.282;2022-10-10T04:18:31;95431.34;;;8.60;100.00
35989;BME280;22064;42.672;23.282;2022-10-10T04:20:56;95430.91;;;8.63;100.00
35989;BME280;22064;42.672;23.282;2022-10-10T04:23:25;95428.75;;;8.60;100.00
35989;BME280;22064;42.672;23.282;2022-10-10T04:25:51;95433.56;;;8.56;100.00
35989;BME280;22064;42.672;23.282;2022-10-10T04:28:17;95430.59;;;8.52;100.00
35989;BME280;22064;42.672;23.282;2022-10-10T04:30:43;95424.84;;;8.50;100.00
35989;BME280;22064;42.672;23.282;2022-10-10T04:33:10;95415.63;;;8.54;100.00
35989;BME280;22064;42.672;23.282;2022-10-10T04:35:36;95423.31;;;8.68;100.00
35989;BME280;22064;42.672;23.282;2022-10-10T04:38:01;95421.31;;;8.70;100.00
35989;BME280;22064;42.672;23.282;2022-10-10T04:40:27;95426.13;;;8.66;100.00
35989;BME280;22064;42.672;23.282;2022-10-10T04:42:53;95430.09;;;8.69;100.00
35989;BME280;22064;42.672;23.282;2022-10-10T04:45:19;95430.38;;;8.86;100.00
35989;BME280;22064;42.672;23.282;2022-10-10T04:47:44;95428.41;;;8.81;100.00
35989;BME280;22064;42.672;23.282;2022-10-10T04:50:10;95435.03;;;9.02;100.00
35989;BME280;22064;42.672;23.282;2022-10-10T04:52:36;95434.13;;;9.15;100.00
35989;BME280;22064;42.672;23.282;2022-10-10T04:55:01;95426.03;;;9.30;100.00
35989;BME280;22064;42.672;23.282;2022-10-10T04:57:27;95435.22;;;9.51;100.00
35989;BME280;22064;42.672;23.282;2022-10-10T04:59:52;95428.31;;;9.63;100.00
35989;BME280;22064;42.672;23.282;2022-10-10T05:02:18;95435.53;;;9.79;100.00
35989;BME280;22064;42.672;23.282;2022-10-10T05:04:43;95427.41;;;9.87;100.00
35989;BME280;22064;42.672;23.282;2022-10-10T05:07:09;95425.56;;;9.94;100.00
35989;BME280;22064;42.672;23.282;2022-10-10T05:09:34;95438.91;;;10.16;100.00
35989;BME280;22064;42.672;23.282;2022-10-10T05:12:00;95433.59;;;10.23;100.00
35989;BME280;22064;42.672;23.282;2022-10-10T05:14:26;95426.09;;;9.97;100.00
35989;BME280;22064;42.672;23.282;2022-10-10T05:16:51;95438.63;;;9.88;100.00
35989;BME280;22064;42.672;23.282;2022-10-10T05:19:17;95441.00;;;9.71;100.00
35989;BME280;22064;42.672;23.282;2022-10-10T05:21:42;95442.97;;;9.57;100.00
35989;BME280;22064;42.672;23.282;2022-10-10T05:24:08;95451.53;;;9.39;100.00
35989;BME280;22064;42.672;23.282;2022-10-10T05:26:33;95457.41;;;9.28;100.00
35989;BME280;22064;42.672;23.282;2022-10-10T05:28:59;95459.88;;;9.23;100.00
35989;BME280;22064;42.672;23.282;2022-10-10T05:31:26;95461.50;;;9.17;100.00
35989;BME280;22064;42.672;23.282;2022-10-10T05:33:51;95466.44;;;9.25;100.00
35989;BME280;22064;42.672;23.282;2022-10-10T05:36:17;95460.44;;;9.25;100.00
35989;BME280;22064;42.672;23.282;2022-10-10T05:38:43;95466.59;;;9.31;100.00
35989;BME280;22064;42.672;23.282;2022-10-10T05:41:09;95470.31;;;9.41;100.00
35989;BME280;22064;42.672;23.282;2022-10-10T05:43:35;95475.81;;;9.52;100.00
35989;BME280;22064;42.672;23.282;2022-10-10T05:46:01;95463.31;;;9.60;100.00
35989;BME280;22064;42.672;23.282;2022-10-10T05:48:27;95463.09;;;9.62;100.00
35989;BME280;22064;42.672;23.282;2022-10-10T05:50:57;95477.47;;;9.64;100.00
35989;BME280;22064;42.672;23.282;2022-10-10T05:53:25;95476.34;;;9.79;100.00
35989;BME280;22064;42.672;23.282;2022-10-10T05:55:50;95472.66;;;9.86;100.00
35989;BME280;22064;42.672;23.282;2022-10-10T05:58:16;95466.22;;;9.89;100.00
35989;BME280;22064;42.672;23.282;2022-10-10T06:00:44;95482.56;;;9.96;100.00
35989;BME280;22064;42.672;23.282;2022-10-10T06:03:11;95479.94;;;9.96;100.00
35989;BME280;22064;42.672;23.282;2022-10-10T06:05:39;95484.09;;;10.04;100.00
35989;BME280;22064;42.672;23.282;2022-10-10T06:08:05;95473.44;;;10.24;100.00
35989;BME280;22064;42.672;23.282;2022-10-10T06:10:35;95482.94;;;10.67;100.00
35989;BME280;22064;42.672;23.282;2022-10-10T06:13:02;95486.53;;;10.96;100.00
35989;BME280;22064;42.672;23.282;2022-10-10T06:15:28;95479.88;;;11.12;100.00
35989;BME280;22064;42.672;23.282;2022-10-10T06:17:53;95497.03;;;11.43;100.00
35989;BME280;22064;42.672;23.282;2022-10-10T06:20:19;95484.91;;;11.60;100.00
35989;BME280;22064;42.672;23.282;2022-10-10T06:22:44;95471.63;;;11.26;100.00
35989;BME280;22064;42.672;23.282;2022-10-10T06:25:10;95488.31;;;11.49;100.00
35989;BME280;22064;42.672;23.282;2022-10-10T06:27:35;95495.03;;;11.68;100.00
35989;BME280;22064;42.672;23.282;2022-10-10T06:30:01;95488.91;;;11.63;100.00
35989;BME280;22064;42.672;23.282;2022-10-10T06:32:26;95497.59;;;11.33;100.00
35989;BME280;22064;42.672;23.282;2022-10-10T06:34:52;95499.19;;;11.22;100.00
35989;BME280;22064;42.672;23.282;2022-10-10T06:37:17;95502.91;;;11.26;100.00
35989;BME280;22064;42.672;23.282;2022-10-10T06:39:43;95496.94;;;11.38;100.00
35989;BME280;22064;42.672;23.282;2022-10-10T06:42:08;95499.53;;;11.26;100.00
35989;BME280;22064;42.672;23.282;2022-10-10T06:44:34;95505.31;;;11.28;100.00
35989;BME280;22064;42.672;23.282;2022-10-10T06:46:59;95507.09;;;11.27;100.00
35989;BME280;22064;42.672;23.282;2022-10-10T06:49:25;95514.75;;;11.41;100.00
35989;BME280;22064;42.672;23.282;2022-10-10T06:51:50;95507.94;;;11.63;100.00
35989;BME280;22064;42.672;23.282;2022-10-10T06:54:16;95504.44;;;11.93;100.00
35989;BME280;22064;42.672;23.282;2022-10-10T06:56:41;95513.69;;;12.24;100.00
35989;BME280;22064;42.672;23.282;2022-10-10T06:59:07;95503.22;;;12.36;100.00
35989;BME280;22064;42.672;23.282;2022-10-10T07:01:32;95503.59;;;12.28;100.00
35989;BME280;22064;42.672;23.282;2022-10-10T07:03:58;95496.06;;;12.43;100.00
35989;BME280;22064;42.672;23.282;2022-10-10T07:06:23;95493.66;;;12.53;100.00
35989;BME280;22064;42.672;23.282;2022-10-10T07:08:49;95509.94;;;12.72;100.00
35989;BME280;22064;42.672;23.282;2022-10-10T07:11:17;95501.91;;;12.90;100.00
35989;BME280;22064;42.672;23.282;2022-10-10T07:13:42;95510.63;;;12.96;100.00
35989;BME280;22064;42.672;23.282;2022-10-10T07:16:09;95508.78;;;13.25;100.00
35989;BME280;22064;42.672;23.282;2022-10-10T07:18:35;95499.34;;;13.58;100.00
35989;BME280;22064;42.672;23.282;2022-10-10T07:21:02;95501.81;;;14.03;100.00
35989;BME280;22064;42.672;23.282;2022-10-10T07:23:29;95514.03;;;14.15;100.00
35989;BME280;22064;42.672;23.282;2022-10-10T07:26:02;95515.91;;;14.41;100.00
35989;BME280;22064;42.672;23.282;2022-10-10T07:28:28;95512.69;;;14.78;100.00
35989;BME280;22064;42.672;23.282;2022-10-10T07:30:58;95507.41;;;15.00;100.00
35989;BME280;22064;42.672;23.282;2022-10-10T07:33:25;95509.91;;;15.17;100.00
35989;BME280;22064;42.672;23.282;2022-10-10T07:35:54;95512.63;;;15.27;100.00
35989;BME280;22064;42.672;23.282;2022-10-10T07:38:20;95516.47;;;15.46;100.00
35989;BME280;22064;42.672;23.282;2022-10-10T07:40:45;95518.59;;;15.50;100.00
35989;BME280;22064;42.672;23.282;2022-10-10T07:43:11;95510.00;;;15.27;100.00
35989;BME280;22064;42.672;23.282;2022-10-10T07:45:36;95506.69;;;15.37;100.00
35989;BME280;22064;42.672;23.282;2022-10-10T07:48:03;95502.88;;;15.55;100.00
35989;BME280;22064;42.672;23.282;2022-10-10T07:50:28;95488.75;;;15.61;100.00
35989;BME280;22064;42.672;23.282;2022-10-10T07:52:54;95505.22;;;15.88;100.00
35989;BME280;22064;42.672;23.282;2022-10-10T07:55:19;95511.06;;;16.01;100.00
35989;BME280;22064;42.672;23.282;2022-10-10T07:57:45;95504.75;;;15.97;100.00
35989;BME280;22064;42.672;23.282;2022-10-10T08:00:12;95507.50;;;16.17;100.00
35989;BME280;22064;42.672;23.282;2022-10-10T08:02:38;95498.88;;;16.27;100.00
35989;BME280;22064;42.672;23.282;2022-10-10T08:05:04;95499.69;;;16.37;100.00
35989;BME280;22064;42.672;23.282;2022-10-10T08:07:30;95495.50;;;16.47;100.00
35989;BME280;22064;42.672;23.282;2022-10-10T08:09:55;95493.91;;;16.40;100.00
35989;BME280;22064;42.672;23.282;2022-10-10T08:12:21;95494.16;;;16.34;100.00
35989;BME280;22064;42.672;23.282;2022-10-10T08:14:46;95500.94;;;16.25;100.00
35989;BME280;22064;42.672;23.282;2022-10-10T08:17:12;95498.59;;;16.23;100.00
35989;BME280;22064;42.672;23.282;2022-10-10T08:19:37;95500.69;;;16.21;100.00
35989;BME280;22064;42.672;23.282;2022-10-10T08:22:03;95507.56;;;16.32;100.00
35989;BME280;22064;42.672;23.282;2022-10-10T08:24:29;95500.53;;;16.48;100.00
35989;BME280;22064;42.672;23.282;2022-10-10T08:26:54;95504.78;;;16.65;100.00
35989;BME280;22064;42.672;23.282;2022-10-10T08:29:20;95489.81;;;16.70;100.00
35989;BME280;22064;42.672;23.282;2022-10-10T08:31:46;95495.69;;;16.93;100.00
35989;BME280;22064;42.672;23.282;2022-10-10T08:34:12;95492.56;;;17.01;100.00
35989;BME280;22064;42.672;23.282;2022-10-10T08:36:37;95498.88;;;17.20;100.00
35989;BME280;22064;42.672;23.282;2022-10-10T08:39:03;95494.94;;;17.23;100.00
35989;BME280;22064;42.672;23.282;2022-10-10T08:44:11;95497.97;;;16.63;100.00
35989;BME280;22064;42.672;23.282;2022-10-10T08:46:43;95499.69;;;16.37;100.00
35989;BME280;22064;42.672;23.282;2022-10-10T08:49:29;95509.31;;;16.16;100.00
35989;BME280;22064;42.672;23.282;2022-10-10T08:55:10;95499.22;;;15.93;100.00
35989;BME280;22064;42.672;23.282;2022-10-10T09:00:20;95511.91;;;15.69;100.00
35989;BME280;22064;42.672;23.282;2022-10-10T09:05:17;95518.78;;;15.75;100.00
35989;BME280;22064;42.672;23.282;2022-10-10T09:15:54;95516.47;;;16.89;100.00
35989;BME280;22064;42.672;23.282;2022-10-10T09:18:50;95517.31;;;17.20;100.00
35989;BME280;22064;42.672;23.282;2022-10-10T09:21:23;95523.63;;;17.60;100.00
35989;BME280;22064;42.672;23.282;2022-10-10T09:26:22;95514.31;;;18.29;100.00
35989;BME280;22064;42.672;23.282;2022-10-10T09:31:32;95524.69;;;18.80;100.00
35989;BME280;22064;42.672;23.282;2022-10-10T09:34:11;95535.22;;;18.85;100.00
35989;BME280;22064;42.672;23.282;2022-10-10T09:36:38;95524.81;;;19.04;100.00
35989;BME280;22064;42.672;23.282;2022-10-10T09:39:21;95524.66;;;19.25;100.00
35989;BME280;22064;42.672;23.282;2022-10-10T09:42:00;95521.25;;;19.58;100.00
35989;BME280;22064;42.672;23.282;2022-10-10T09:44:26;95521.13;;;19.79;100.00
35989;BME280;22064;42.672;23.282;2022-10-10T09:46:52;95516.44;;;19.71;100.00
35989;BME280;22064;42.672;23.282;2022-10-10T09:49:19;95513.28;;;19.64;100.00
35989;BME280;22064;42.672;23.282;2022-10-10T09:51:46;95520.22;;;19.59;100.00
35989;BME280;22064;42.672;23.282;2022-10-10T09:54:15;95521.38;;;19.77;100.00
35989;BME280;22064;42.672;23.282;2022-10-10T09:56:54;95526.75;;;19.96;100.00
35989;BME280;22064;42.672;23.282;2022-10-10T09:59:42;95521.47;;;19.62;100.00
35989;BME280;22064;42.672;23.282;2022-10-10T10:02:20;95519.91;;;19.66;100.00
35989;BME280;22064;42.672;23.282;2022-10-10T10:04:48;95513.06;;;19.94;100.00
35989;BME280;22064;42.672;23.282;2022-10-10T10:07:31;95513.84;;;19.95;99.16
35989;BME280;22064;42.672;23.282;2022-10-10T10:10:10;95512.91;;;19.80;100.00
35989;BME280;22064;42.672;23.282;2022-10-10T10:12:42;95512.91;;;19.80;100.00
35989;BME280;22064;42.672;23.282;2022-10-10T10:15:23;95518.06;;;19.67;100.00
35989;BME280;22064;42.672;23.282;2022-10-10T10:20:51;95503.13;;;19.81;96.09
35989;BME280;22064;42.672;23.282;2022-10-10T10:23:54;95503.97;;;19.76;96.12
35989;BME280;22064;42.672;23.282;2022-10-10T10:28:52;95509.03;;;19.97;93.72
35989;BME280;22064;42.672;23.282;2022-10-10T10:37:15;95503.63;;;20.60;87.53
35989;BME280;22064;42.672;23.282;2022-10-10T10:40:24;95493.44;;;20.91;81.39
35989;BME280;22064;42.672;23.282;2022-10-10T10:51:59;95496.81;;;20.54;82.88
35989;BME280;22064;42.672;23.282;2022-10-10T10:55:36;95495.97;;;20.59;81.71
35989;BME280;22064;42.672;23.282;2022-10-10T11:00:21;95475.41;;;20.50;82.67
35989;BME280;22064;42.672;23.282;2022-10-10T11:03:29;95467.94;;;20.58;82.84
35989;BME280;22064;42.672;23.282;2022-10-10T11:09:20;95429.31;;;20.75;81.22
35989;BME280;22064;42.672;23.282;2022-10-10T11:19:51;95469.75;;;20.81;82.13
35989;BME280;22064;42.672;23.282;2022-10-10T11:22:48;95468.56;;;20.68;81.60
35989;BME280;22064;42.672;23.282;2022-10-10T11:25:25;95463.50;;;20.53;84.54
35989;BME280;22064;42.672;23.282;2022-10-10T11:28:00;95461.41;;;20.26;85.08
35989;BME280;22064;42.672;23.282;2022-10-10T11:30:43;95459.94;;;20.15;89.38
35989;BME280;22064;42.672;23.282;2022-10-10T11:33:18;95451.28;;;20.09;86.84
35989;BME280;22064;42.672;23.282;2022-10-10T11:35:54;95437.63;;;20.02;87.96
35989;BME280;22064;42.672;23.282;2022-10-10T11:38:34;95435.09;;;20.16;88.25
35989;BME280;22064;42.672;23.282;2022-10-10T11:43:59;95435.53;;;19.99;92.07
35989;BME280;22064;42.672;23.282;2022-10-10T11:54:45;95422.06;;;20.00;93.26
35989;BME280;22064;42.672;23.282;2022-10-10T11:57:40;95409.06;;;20.04;90.65
35989;BME280;22064;42.672;23.282;2022-10-10T12:00:16;95409.22;;;20.13;91.36
35989;BME280;22064;42.672;23.282;2022-10-10T12:02:44;95399.66;;;20.17;93.58
35989;BME280;22064;42.672;23.282;2022-10-10T12:05:27;95405.28;;;20.10;90.90
35989;BME280;22064;42.672;23.282;2022-10-10T12:12:59;95410.03;;;19.89;94.27
35989;BME280;22064;42.672;23.282;2022-10-10T12:15:34;95406.13;;;20.05;92.95
35989;BME280;22064;42.672;23.282;2022-10-10T12:18:02;95392.13;;;20.05;91.47
35989;BME280;22064;42.672;23.282;2022-10-10T12:20:31;95387.38;;;20.26;87.69
35989;BME280;22064;42.672;23.282;2022-10-10T12:25:41;95379.63;;;20.53;81.56
35989;BME280;22064;42.672;23.282;2022-10-10T12:35:50;95374.66;;;21.17;75.02
35989;BME280;22064;42.672;23.282;2022-10-10T12:38:24;95372.31;;;21.76;70.97
35989;BME280;22064;42.672;23.282;2022-10-10T12:43:48;95371.34;;;22.00;65.00
35989;BME280;22064;42.672;23.282;2022-10-10T12:46:28;95374.38;;;21.79;64.39
35989;BME280;22064;42.672;23.282;2022-10-10T12:49:04;95369.84;;;21.52;63.37
35989;BME280;22064;42.672;23.282;2022-10-10T12:51:38;95338.22;;;21.28;65.58
35989;BME280;22064;42.672;23.282;2022-10-10T12:54:06;95375.19;;;21.33;64.44
35989;BME280;22064;42.672;23.282;2022-10-10T12:56:42;95371.34;;;21.26;66.45
35989;BME280;22064;42.672;23.282;2022-10-10T12:59:22;95373.09;;;21.16;66.94
35989;BME280;22064;42.672;23.282;2022-10-10T13:01:52;95374.34;;;21.38;65.32
35989;BME280;22064;42.672;23.282;2022-10-10T13:04:20;95359.16;;;21.11;65.18
35989;BME280;22064;42.672;23.282;2022-10-10T13:06:48;95359.66;;;20.80;67.02
35989;BME280;22064;42.672;23.282;2022-10-10T13:09:19;95366.81;;;20.80;68.45
35989;BME280;22064;42.672;23.282;2022-10-10T13:12:17;95370.50;;;20.97;68.11
35989;BME280;22064;42.672;23.282;2022-10-10T13:14:45;95365.00;;;20.94;68.29
35989;BME280;22064;42.672;23.282;2022-10-10T13:17:37;95359.91;;;20.97;68.68
35989;BME280;22064;42.672;23.282;2022-10-10T13:20:06;95371.84;;;20.95;68.68
35989;BME280;22064;42.672;23.282;2022-10-10T13:22:32;95368.69;;;20.93;68.63
35989;BME280;22064;42.672;23.282;2022-10-10T13:25:00;95365.38;;;20.87;69.32
35989;BME280;22064;42.672;23.282;2022-10-10T13:27:32;95368.50;;;20.89;67.34
35989;BME280;22064;42.672;23.282;2022-10-10T13:29:59;95357.91;;;20.89;67.04
35989;BME280;22064;42.672;23.282;2022-10-10T13:32:33;95360.88;;;20.69;70.22
35989;BME280;22064;42.672;23.282;2022-10-10T13:35:11;95365.13;;;20.84;69.72
35989;BME280;22064;42.672;23.282;2022-10-10T13:37:39;95364.00;;;20.71;71.06
35989;BME280;22064;42.672;23.282;2022-10-10T13:40:05;95366.16;;;20.50;71.28
35989;BME280;22064;42.672;23.282;2022-10-10T13:42:38;95353.22;;;20.48;73.48
35989;BME280;22064;42.672;23.282;2022-10-10T13:47:50;95359.41;;;20.95;70.40
35989;BME280;22064;42.672;23.282;2022-10-10T13:56:13;95359.72;;;21.08;68.78
35989;BME280;22064;42.672;23.282;2022-10-10T14:01:39;95367.91;;;21.44;66.28
35989;BME280;22064;42.672;23.282;2022-10-10T14:06:48;95360.03;;;21.80;62.85
35989;BME280;22064;42.672;23.282;2022-10-10T14:11:53;95368.59;;;21.31;63.57
35989;BME280;22064;42.672;23.282;2022-10-10T14:14:23;95370.25;;;21.13;64.94
35989;BME280;22064;42.672;23.282;2022-10-10T14:17:00;95365.53;;;21.10;64.30
35989;BME280;22064;42.672;23.282;2022-10-10T14:19:26;95356.94;;;20.85;66.07
35989;BME280;22064;42.672;23.282;2022-10-10T14:21:51;95355.66;;;20.64;68.89
35989;BME280;22064;42.672;23.282;2022-10-10T14:24:17;95352.09;;;20.55;70.28
35989;BME280;22064;42.672;23.282;2022-10-10T14:26:42;95355.50;;;20.36;73.71
35989;BME280;22064;42.672;23.282;2022-10-10T14:29:12;95344.75;;;20.46;72.57
35989;BME280;22064;42.672;23.282;2022-10-10T14:31:39;95339.69;;;20.31;74.18
35989;BME280;22064;42.672;23.282;2022-10-10T14:34:04;95343.94;;;20.32;74.98
35989;BME280;22064;42.672;23.282;2022-10-10T14:36:30;95347.34;;;20.33;75.79
35989;BME280;22064;42.672;23.282;2022-10-10T14:38:56;95346.06;;;20.11;77.89
35989;BME280;22064;42.672;23.282;2022-10-10T14:41:21;95337.59;;;19.90;80.47
35989;BME280;22064;42.672;23.282;2022-10-10T14:43:47;95339.06;;;19.77;82.08
35989;BME280;22064;42.672;23.282;2022-10-10T14:46:19;95340.41;;;19.75;84.25
35989;BME280;22064;42.672;23.282;2022-10-10T14:48:45;95348.72;;;19.63;85.57
35989;BME280;22064;42.672;23.282;2022-10-10T14:51:11;95340.19;;;19.47;87.77
35989;BME280;22064;42.672;23.282;2022-10-10T14:53:37;95333.41;;;19.36;91.04
35989;BME280;22064;42.672;23.282;2022-10-10T14:56:03;95340.75;;;19.44;92.09
35989;BME280;22064;42.672;23.282;2022-10-10T14:58:29;95336.34;;;19.58;91.96